sensor_id;sensor_type;location;lat;lon;timestamp;P1;durP1;ratioP1;P2;durP2;ratioP2
15067;SDS011;7633;60.024;18.770;2023-09-12T00:01:04;5.97;;;5.47;;
15067;SDS011;7633;60.024;18.770;2023-09-12T00:03:34;5.28;;;4.78;;
15067;SDS011;7633;60.024;18.770;2023-09-12T00:06:00;7.18;;;5.47;;
15067;SDS011;7633;60.024;18.770;2023-09-12T00:08:26;6.35;;;5.75;;
15067;SDS011;7633;60.024;18.770;2023-09-12T00:10:58;7.00;;;6.30;;
15067;SDS011;7633;60.024;18.770;2023-09-12T00:13:24;8.07;;;6.25;;
15067;SDS011;7633;60.024;18.770;2023-09-12T00:15:50;6.80;;;6.20;;
15067;SDS011;7633;60.024;18.770;2023-09-12T00:18:15;7.82;;;6.22;;
15067;SDS011;7633;60.024;18.770;2023-09-12T00:20:40;6.65;;;6.05;;
15067;SDS011;7633;60.024;18.770;2023-09-12T00:23:09;7.20;;;6.15;;
15067;SDS011;7633;60.024;18.770;2023-09-12T00:25:34;6.18;;;5.63;;
15067;SDS011;7633;60.024;18.770;2023-09-12T00:28:00;7.03;;;6.32;;
15067;SDS011;7633;60.024;18.770;2023-09-12T00:30:25;7.55;;;6.85;;
15067;SDS011;7633;60.024;18.770;2023-09-12T00:32:52;7.88;;;6.47;;
15067;SDS011;7633;60.024;18.770;2023-09-12T00:35:18;7.80;;;7.07;;
15067;SDS011;7633;60.024;18.770;2023-09-12T00:37:44;7.15;;;6.50;;
15067;SDS011;7633;60.024;18.770;2023-09-12T00:40:09;7.85;;;7.15;;
15067;SDS011;7633;60.024;18.770;2023-09-12T00:42:35;7.82;;;6.80;;
15067;SDS011;7633;60.024;18.770;2023-09-12T00:45:00;7.85;;;6.68;;
15067;SDS011;7633;60.024;18.770;2023-09-12T00:47:25;6.97;;;5.90;;
15067;SDS011;7633;60.024;18.770;2023-09-12T00:49:52;7.40;;;6.70;;
15067;SDS011;7633;60.024;18.770;2023-09-12T00:52:18;7.45;;;6.72;;
15067;SDS011;7633;60.024;18.770;2023-09-12T00:54:43;7.90;;;7.05;;
15067;SDS011;7633;60.024;18.770;2023-09-12T00:57:09;7.47;;;6.72;;
15067;SDS011;7633;60.024;18.770;2023-09-12T00:59:34;9.63;;;7.18;;
15067;SDS011;7633;60.024;18.770;2023-09-12T01:02:00;8.30;;;6.97;;
15067;SDS011;7633;60.024;18.770;2023-09-12T01:04:26;7.50;;;6.80;;
15067;SDS011;7633;60.024;18.770;2023-09-12T01:06:53;8.93;;;7.43;;
15067;SDS011;7633;60.024;18.770;2023-09-12T01:09:24;8.45;;;7.45;;
15067;SDS011;7633;60.024;18.770;2023-09-12T01:11:49;8.38;;;7.50;;
15067;SDS011;7633;60.024;18.770;2023-09-12T01:14:15;7.65;;;6.85;;
15067;SDS011;7633;60.024;18.770;2023-09-12T01:16:40;8.40;;;7.50;;
15067;SDS011;7633;60.024;18.770;2023-09-12T01:19:07;8.55;;;7.65;;
15067;SDS011;7633;60.024;18.770;2023-09-12T01:21:37;7.93;;;7.15;;
15067;SDS011;7633;60.024;18.770;2023-09-12T01:24:08;9.80;;;7.53;;
15067;SDS011;7633;60.024;18.770;2023-09-12T01:26:41;8.10;;;7.20;;
15067;SDS011;7633;60.024;18.770;2023-09-12T01:29:07;9.02;;;7.97;;
15067;SDS011;7633;60.024;18.770;2023-09-12T01:31:33;9.52;;;8.25;;
15067;SDS011;7633;60.024;18.770;2023-09-12T01:34:08;9.02;;;8.13;;
15067;SDS011;7633;60.024;18.770;2023-09-12T01:36:33;9.98;;;8.98;;
15067;SDS011;7633;60.024;18.770;2023-09-12T01:38:58;10.52;;;9.43;;
15067;SDS011;7633;60.024;18.770;2023-09-12T01:41:24;9.32;;;8.20;;
15067;SDS011;7633;60.024;18.770;2023-09-12T01:43:50;9.60;;;8.60;;
15067;SDS011;7633;60.024;18.770;2023-09-12T01:46:17;9.73;;;8.57;;
15067;SDS011;7633;60.024;18.770;2023-09-12T01:48:43;10.25;;;8.63;;
15067;SDS011;7633;60.024;18.770;2023-09-12T01:51:09;10.43;;;9.32;;
15067;SDS011;7633;60.024;18.770;2023-09-12T01:53:34;10.70;;;8.63;;
15067;SDS011;7633;60.024;18.770;2023-09-12T01:56:01;9.48;;;8.18;;
15067;SDS011;7633;60.024;18.770;2023-09-12T01:58:26;11.43;;;10.20;;
15067;SDS011;7633;60.024;18.770;2023-09-12T02:00:52;12.13;;;9.85;;
15067;SDS011;7633;60.024;18.770;2023-09-12T02:03:20;9.85;;;8.75;;
15067;SDS011;7633;60.024;18.770;2023-09-12T02:05:45;10.40;;;9.30;;
15067;SDS011;7633;60.024;18.770;2023-09-12T02:08:11;10.45;;;8.60;;
15067;SDS011;7633;60.024;18.770;2023-09-12T02:10:36;11.05;;;9.65;;
15067;SDS011;7633;60.024;18.770;2023-09-12T02:13:01;11.80;;;10.48;;
15067;SDS011;7633;60.024;18.770;2023-09-12T02:15:27;12.10;;;10.07;;
15067;SDS011;7633;60.024;18.770;2023-09-12T02:17:52;14.15;;;10.85;;
15067;SDS011;7633;60.024;18.770;2023-09-12T02:20:18;12.93;;;11.05;;
15067;SDS011;7633;60.024;18.770;2023-09-12T02:22:44;12.13;;;10.80;;
15067;SDS011;7633;60.024;18.770;2023-09-12T02:25:10;12.77;;;11.27;;
15067;SDS011;7633;60.024;18.770;2023-09-12T02:27:35;16.42;;;11.23;;
15067;SDS011;7633;60.024;18.770;2023-09-12T02:30:01;12.70;;;10.38;;
15067;SDS011;7633;60.024;18.770;2023-09-12T02:32:28;14.63;;;11.57;;
15067;SDS011;7633;60.024;18.770;2023-09-12T02:34:53;11.80;;;10.57;;
15067;SDS011;7633;60.024;18.770;2023-09-12T02:37:19;15.52;;;11.95;;
15067;SDS011;7633;60.024;18.770;2023-09-12T02:39:44;14.88;;;11.93;;
15067;SDS011;7633;60.024;18.770;2023-09-12T02:42:10;15.43;;;12.80;;
15067;SDS011;7633;60.024;18.770;2023-09-12T02:44:36;13.65;;;11.27;;
15067;SDS011;7633;60.024;18.770;2023-09-12T02:47:03;15.48;;;11.77;;
15067;SDS011;7633;60.024;18.770;2023-09-12T02:49:29;15.88;;;11.75;;
15067;SDS011;7633;60.024;18.770;2023-09-12T02:51:54;15.55;;;11.63;;
15067;SDS011;7633;60.024;18.770;2023-09-12T02:54:20;14.73;;;12.05;;
15067;SDS011;7633;60.024;18.770;2023-09-12T02:56:45;14.80;;;12.52;;
15067;SDS011;7633;60.024;18.770;2023-09-12T02:59:11;14.85;;;13.25;;
15067;SDS011;7633;60.024;18.770;2023-09-12T03:01:43;13.95;;;11.82;;
15067;SDS011;7633;60.024;18.770;2023-09-12T03:04:08;14.02;;;12.55;;
15067;SDS011;7633;60.024;18.770;2023-09-12T03:06:33;14.77;;;12.90;;
15067;SDS011;7633;60.024;18.770;2023-09-12T03:08:59;13.50;;;11.25;;
15067;SDS011;7633;60.024;18.770;2023-09-12T03:11:27;13.85;;;12.32;;
15067;SDS011;7633;60.024;18.770;2023-09-12T03:13:53;17.27;;;13.80;;
15067;SDS011;7633;60.024;18.770;2023-09-12T03:16:18;15.13;;;12.40;;
15067;SDS011;7633;60.024;18.770;2023-09-12T03:18:44;14.68;;;12.50;;
15067;SDS011;7633;60.024;18.770;2023-09-12T03:21:09;15.30;;;13.10;;
15067;SDS011;7633;60.024;18.770;2023-09-12T03:23:35;15.40;;;12.38;;
15067;SDS011;7633;60.024;18.770;2023-09-12T03:26:01;17.45;;;13.10;;
15067;SDS011;7633;60.024;18.770;2023-09-12T03:28:29;15.68;;;12.02;;
15067;SDS011;7633;60.024;18.770;2023-09-12T03:31:02;22.85;;;13.57;;
15067;SDS011;7633;60.024;18.770;2023-09-12T03:33:28;14.75;;;12.20;;
15067;SDS011;7633;60.024;18.770;2023-09-12T03:35:53;17.75;;;13.20;;
15067;SDS011;7633;60.024;18.770;2023-09-12T03:38:19;23.58;;;13.05;;
15067;SDS011;7633;60.024;18.770;2023-09-12T03:40:44;18.73;;;13.73;;
15067;SDS011;7633;60.024;18.770;2023-09-12T03:43:10;15.45;;;12.95;;
15067;SDS011;7633;60.024;18.770;2023-09-12T03:45:37;18.42;;;14.25;;
15067;SDS011;7633;60.024;18.770;2023-09-12T03:48:02;16.60;;;13.00;;
15067;SDS011;7633;60.024;18.770;2023-09-12T03:50:28;18.10;;;14.10;;
15067;SDS011;7633;60.024;18.770;2023-09-12T03:52:53;15.50;;;12.40;;
15067;SDS011;7633;60.024;18.770;2023-09-12T03:55:18;22.95;;;13.60;;
15067;SDS011;7633;60.024;18.770;2023-09-12T03:57:44;13.52;;;11.88;;
15067;SDS011;7633;60.024;18.770;2023-09-12T04:00:09;16.42;;;12.82;;
15067;SDS011;7633;60.024;18.770;2023-09-12T04:02:34;15.30;;;12.30;;
15067;SDS011;7633;60.024;18.770;2023-09-12T04:05:00;17.13;;;13.65;;
15067;SDS011;7633;60.024;18.770;2023-09-12T04:07:25;14.10;;;12.27;;
15067;SDS011;7633;60.024;18.770;2023-09-12T04:09:51;13.27;;;11.85;;
15067;SDS011;7633;60.024;18.770;2023-09-12T04:12:16;14.10;;;12.25;;
15067;SDS011;7633;60.024;18.770;2023-09-12T04:14:45;15.27;;;12.75;;
15067;SDS011;7633;60.024;18.770;2023-09-12T04:17:10;14.80;;;12.68;;
15067;SDS011;7633;60.024;18.770;2023-09-12T04:19:35;15.45;;;12.40;;
15067;SDS011;7633;60.024;18.770;2023-09-12T04:22:01;14.45;;;12.43;;
15067;SDS011;7633;60.024;18.770;2023-09-12T04:24:26;15.35;;;12.15;;
15067;SDS011;7633;60.024;18.770;2023-09-12T04:26:53;14.30;;;12.70;;
15067;SDS011;7633;60.024;18.770;2023-09-12T04:29:18;15.85;;;13.23;;
15067;SDS011;7633;60.024;18.770;2023-09-12T04:31:45;15.13;;;12.55;;
15067;SDS011;7633;60.024;18.770;2023-09-12T04:34:11;17.67;;;13.73;;
15067;SDS011;7633;60.024;18.770;2023-09-12T04:36:36;18.70;;;13.43;;
15067;SDS011;7633;60.024;18.770;2023-09-12T04:39:01;16.48;;;12.90;;
15067;SDS011;7633;60.024;18.770;2023-09-12T04:41:27;14.23;;;11.25;;
15067;SDS011;7633;60.024;18.770;2023-09-12T04:43:52;15.93;;;13.05;;
15067;SDS011;7633;60.024;18.770;2023-09-12T04:46:17;13.43;;;12.02;;
15067;SDS011;7633;60.024;18.770;2023-09-12T04:48:43;16.52;;;13.98;;
15067;SDS011;7633;60.024;18.770;2023-09-12T04:51:08;16.00;;;13.00;;
15067;SDS011;7633;60.024;18.770;2023-09-12T04:53:34;18.67;;;13.68;;
15067;SDS011;7633;60.024;18.770;2023-09-12T04:56:00;14.20;;;12.63;;
15067;SDS011;7633;60.024;18.770;2023-09-12T05:20:22;14.70;;;11.60;;
15067;SDS011;7633;60.024;18.770;2023-09-12T05:22:50;12.43;;;11.18;;
15067;SDS011;7633;60.024;18.770;2023-09-12T05:25:17;11.65;;;10.45;;
15067;SDS011;7633;60.024;18.770;2023-09-12T05:27:46;11.52;;;10.40;;
15067;SDS011;7633;60.024;18.770;2023-09-12T05:30:11;11.35;;;10.10;;
15067;SDS011;7633;60.024;18.770;2023-09-12T05:32:37;12.52;;;11.20;;
15067;SDS011;7633;60.024;18.770;2023-09-12T05:35:02;11.38;;;10.27;;
15067;SDS011;7633;60.024;18.770;2023-09-12T05:37:28;11.65;;;10.45;;
15067;SDS011;7633;60.024;18.770;2023-09-12T05:39:53;11.65;;;10.40;;
15067;SDS011;7633;60.024;18.770;2023-09-12T05:42:19;10.25;;;9.30;;
15067;SDS011;7633;60.024;18.770;2023-09-12T05:44:47;10.35;;;9.25;;
15067;SDS011;7633;60.024;18.770;2023-09-12T05:47:14;10.57;;;9.57;;
15067;SDS011;7633;60.024;18.770;2023-09-12T05:49:39;10.43;;;9.48;;
15067;SDS011;7633;60.024;18.770;2023-09-12T05:52:04;9.65;;;8.52;;
15067;SDS011;7633;60.024;18.770;2023-09-12T05:54:32;10.10;;;9.10;;
15067;SDS011;7633;60.024;18.770;2023-09-12T05:56:57;9.38;;;8.48;;
15067;SDS011;7633;60.024;18.770;2023-09-12T05:59:23;8.88;;;7.93;;
15067;SDS011;7633;60.024;18.770;2023-09-12T06:01:48;9.63;;;8.73;;
15067;SDS011;7633;60.024;18.770;2023-09-12T06:04:15;9.70;;;8.88;;
15067;SDS011;7633;60.024;18.770;2023-09-12T06:06:40;10.25;;;9.25;;
15067;SDS011;7633;60.024;18.770;2023-09-12T06:09:07;9.25;;;8.43;;
15067;SDS011;7633;60.024;18.770;2023-09-12T06:11:34;8.95;;;8.15;;
15067;SDS011;7633;60.024;18.770;2023-09-12T06:14:05;10.18;;;9.27;;
15067;SDS011;7633;60.024;18.770;2023-09-12T06:16:31;9.18;;;8.27;;
15067;SDS011;7633;60.024;18.770;2023-09-12T06:18:56;9.02;;;8.23;;
15067;SDS011;7633;60.024;18.770;2023-09-12T06:21:21;9.20;;;8.40;;
15067;SDS011;7633;60.024;18.770;2023-09-12T06:23:47;9.43;;;8.60;;
15067;SDS011;7633;60.024;18.770;2023-09-12T06:26:13;8.63;;;7.82;;
15067;SDS011;7633;60.024;18.770;2023-09-12T06:28:39;9.23;;;8.38;;
15067;SDS011;7633;60.024;18.770;2023-09-12T06:31:09;9.32;;;8.52;;
15067;SDS011;7633;60.024;18.770;2023-09-12T06:33:34;7.57;;;6.93;;
15067;SDS011;7633;60.024;18.770;2023-09-12T06:36:00;8.02;;;7.22;;
15067;SDS011;7633;60.024;18.770;2023-09-12T06:38:25;8.02;;;7.40;;
15067;SDS011;7633;60.024;18.770;2023-09-12T06:40:52;7.78;;;7.07;;
15067;SDS011;7633;60.024;18.770;2023-09-12T06:43:18;7.38;;;6.78;;
15067;SDS011;7633;60.024;18.770;2023-09-12T06:45:43;6.80;;;6.30;;
15067;SDS011;7633;60.024;18.770;2023-09-12T06:48:09;6.63;;;6.13;;
15067;SDS011;7633;60.024;18.770;2023-09-12T06:50:35;6.82;;;6.32;;
15067;SDS011;7633;60.024;18.770;2023-09-12T06:53:04;7.28;;;6.55;;
15067;SDS011;7633;60.024;18.770;2023-09-12T06:55:36;7.82;;;7.13;;
15067;SDS011;7633;60.024;18.770;2023-09-12T06:58:12;7.35;;;6.70;;
15067;SDS011;7633;60.024;18.770;2023-09-12T07:00:40;7.25;;;6.55;;
15067;SDS011;7633;60.024;18.770;2023-09-12T07:03:06;7.35;;;6.75;;
15067;SDS011;7633;60.024;18.770;2023-09-12T07:05:34;6.80;;;6.20;;
15067;SDS011;7633;60.024;18.770;2023-09-12T07:08:01;7.05;;;6.35;;
15067;SDS011;7633;60.024;18.770;2023-09-12T07:10:29;7.40;;;6.80;;
15067;SDS011;7633;60.024;18.770;2023-09-12T07:12:59;7.10;;;6.47;;
15067;SDS011;7633;60.024;18.770;2023-09-12T07:15:24;6.82;;;6.22;;
15067;SDS011;7633;60.024;18.770;2023-09-12T07:17:50;6.60;;;6.10;;
15067;SDS011;7633;60.024;18.770;2023-09-12T07:25:55;5.75;;;5.28;;
15067;SDS011;7633;60.024;18.770;2023-09-12T07:28:27;6.47;;;5.97;;
15067;SDS011;7633;60.024;18.770;2023-09-12T07:30:54;7.07;;;5.75;;
15067;SDS011;7633;60.024;18.770;2023-09-12T07:33:19;6.82;;;6.22;;
15067;SDS011;7633;60.024;18.770;2023-09-12T07:38:22;5.75;;;5.25;;
15067;SDS011;7633;60.024;18.770;2023-09-12T07:40:47;7.20;;;6.60;;
15067;SDS011;7633;60.024;18.770;2023-09-12T07:43:31;6.05;;;5.55;;
15067;SDS011;7633;60.024;18.770;2023-09-12T07:45:57;6.10;;;5.50;;
15067;SDS011;7633;60.024;18.770;2023-09-12T07:48:26;6.55;;;5.95;;
15067;SDS011;7633;60.024;18.770;2023-09-12T07:50:55;6.95;;;6.35;;
15067;SDS011;7633;60.024;18.770;2023-09-12T07:53:20;7.50;;;6.85;;
15067;SDS011;7633;60.024;18.770;2023-09-12T07:55:51;8.07;;;6.95;;
15067;SDS011;7633;60.024;18.770;2023-09-12T07:58:27;8.27;;;7.57;;
15067;SDS011;7633;60.024;18.770;2023-09-12T08:00:52;7.78;;;7.07;;
15067;SDS011;7633;60.024;18.770;2023-09-12T08:03:18;6.72;;;6.13;;
15067;SDS011;7633;60.024;18.770;2023-09-12T08:05:43;6.72;;;6.13;;
15067;SDS011;7633;60.024;18.770;2023-09-12T08:08:21;7.50;;;6.90;;
15067;SDS011;7633;60.024;18.770;2023-09-12T08:10:49;7.10;;;6.55;;
15067;SDS011;7633;60.024;18.770;2023-09-12T08:13:15;6.43;;;5.93;;
15067;SDS011;7633;60.024;18.770;2023-09-12T08:15:40;6.78;;;6.22;;
15067;SDS011;7633;60.024;18.770;2023-09-12T08:18:09;7.63;;;6.28;;
15067;SDS011;7633;60.024;18.770;2023-09-12T08:20:35;6.20;;;5.70;;
15067;SDS011;7633;60.024;18.770;2023-09-12T08:23:01;6.68;;;5.28;;
15067;SDS011;7633;60.024;18.770;2023-09-12T08:25:28;5.97;;;5.47;;
15067;SDS011;7633;60.024;18.770;2023-09-12T08:28:02;6.53;;;6.03;;
15067;SDS011;7633;60.024;18.770;2023-09-12T08:30:31;6.00;;;5.50;;
15067;SDS011;7633;60.024;18.770;2023-09-12T08:33:10;5.72;;;5.22;;
15067;SDS011;7633;60.024;18.770;2023-09-12T08:35:36;5.43;;;5.03;;
15067;SDS011;7633;60.024;18.770;2023-09-12T08:38:02;5.88;;;5.28;;
15067;SDS011;7633;60.024;18.770;2023-09-12T08:40:32;5.13;;;4.65;;
15067;SDS011;7633;60.024;18.770;2023-09-12T08:42:58;5.25;;;4.85;;
15067;SDS011;7633;60.024;18.770;2023-09-12T08:45:24;5.65;;;5.25;;
15067;SDS011;7633;60.024;18.770;2023-09-12T08:47:53;5.60;;;5.20;;
15067;SDS011;7633;60.024;18.770;2023-09-12T08:50:21;5.07;;;4.68;;
15067;SDS011;7633;60.024;18.770;2023-09-12T08:57:58;4.78;;;4.40;;
15067;SDS011;7633;60.024;18.770;2023-09-12T09:00:36;5.13;;;4.72;;
15067;SDS011;7633;60.024;18.770;2023-09-12T09:03:03;5.13;;;4.72;;
15067;SDS011;7633;60.024;18.770;2023-09-12T09:05:29;4.60;;;4.20;;
15067;SDS011;7633;60.024;18.770;2023-09-12T09:08:02;4.32;;;4.03;;
15067;SDS011;7633;60.024;18.770;2023-09-12T09:10:28;4.60;;;4.20;;
15067;SDS011;7633;60.024;18.770;2023-09-12T09:13:07;4.53;;;4.13;;
15067;SDS011;7633;60.024;18.770;2023-09-12T09:15:38;4.65;;;3.83;;
15067;SDS011;7633;60.024;18.770;2023-09-12T09:18:06;4.05;;;3.75;;
15067;SDS011;7633;60.024;18.770;2023-09-12T09:26:00;3.50;;;3.20;;
15067;SDS011;7633;60.024;18.770;2023-09-12T09:59:29;4.43;;;4.03;;
15067;SDS011;7633;60.024;18.770;2023-09-12T10:02:00;4.13;;;3.72;;
15067;SDS011;7633;60.024;18.770;2023-09-12T10:04:31;3.85;;;3.55;;
15067;SDS011;7633;60.024;18.770;2023-09-12T10:06:57;4.05;;;3.65;;
15067;SDS011;7633;60.024;18.770;2023-09-12T10:09:27;3.83;;;3.50;;
15067;SDS011;7633;60.024;18.770;2023-09-12T10:11:55;3.85;;;3.55;;
15067;SDS011;7633;60.024;18.770;2023-09-12T10:14:31;4.38;;;3.97;;
15067;SDS011;7633;60.024;18.770;2023-09-12T10:17:28;3.75;;;3.45;;
15067;SDS011;7633;60.024;18.770;2023-09-12T10:20:18;4.22;;;3.83;;
15067;SDS011;7633;60.024;18.770;2023-09-12T10:25:33;4.03;;;3.72;;
15067;SDS011;7633;60.024;18.770;2023-09-12T10:28:01;4.30;;;4.00;;
15067;SDS011;7633;60.024;18.770;2023-09-12T10:30:27;4.45;;;3.90;;
15067;SDS011;7633;60.024;18.770;2023-09-12T10:32:58;4.40;;;4.10;;
15067;SDS011;7633;60.024;18.770;2023-09-12T10:35:32;4.30;;;4.00;;
15067;SDS011;7633;60.024;18.770;2023-09-12T10:37:59;4.35;;;4.05;;
15067;SDS011;7633;60.024;18.770;2023-09-12T10:40:27;5.03;;;4.20;;
15067;SDS011;7633;60.024;18.770;2023-09-12T10:42:55;4.40;;;4.00;;
15067;SDS011;7633;60.024;18.770;2023-09-12T10:45:26;4.30;;;3.90;;
15067;SDS011;7633;60.024;18.770;2023-09-12T10:47:56;4.47;;;3.97;;
15067;SDS011;7633;60.024;18.770;2023-09-12T10:50:23;4.38;;;3.95;;
15067;SDS011;7633;60.024;18.770;2023-09-12T10:52:48;5.05;;;4.57;;
15067;SDS011;7633;60.024;18.770;2023-09-12T10:55:22;5.30;;;4.78;;
15067;SDS011;7633;60.024;18.770;2023-09-12T10:58:07;3.78;;;3.53;;
15067;SDS011;7633;60.024;18.770;2023-09-12T11:05:50;5.03;;;4.53;;
15067;SDS011;7633;60.024;18.770;2023-09-12T11:08:38;4.97;;;4.32;;
15067;SDS011;7633;60.024;18.770;2023-09-12T11:11:22;5.60;;;4.53;;
15067;SDS011;7633;60.024;18.770;2023-09-12T11:14:02;4.95;;;4.55;;
15067;SDS011;7633;60.024;18.770;2023-09-12T11:16:31;4.85;;;4.40;;
15067;SDS011;7633;60.024;18.770;2023-09-12T11:21:50;5.03;;;4.60;;
15067;SDS011;7633;60.024;18.770;2023-09-12T11:24:19;4.50;;;4.10;;
15067;SDS011;7633;60.024;18.770;2023-09-12T11:26:58;5.05;;;4.65;;
15067;SDS011;7633;60.024;18.770;2023-09-12T11:29:34;4.97;;;4.57;;
15067;SDS011;7633;60.024;18.770;2023-09-12T11:32:04;5.38;;;4.88;;
15067;SDS011;7633;60.024;18.770;2023-09-12T11:34:42;4.30;;;3.90;;
15067;SDS011;7633;60.024;18.770;2023-09-12T11:37:08;4.55;;;4.15;;
15067;SDS011;7633;60.024;18.770;2023-09-12T11:39:34;4.70;;;4.07;;
15067;SDS011;7633;60.024;18.770;2023-09-12T11:42:01;4.43;;;4.00;;
15067;SDS011;7633;60.024;18.770;2023-09-12T11:47:01;5.03;;;4.63;;
15067;SDS011;7633;60.024;18.770;2023-09-12T11:54:46;5.05;;;4.55;;
15067;SDS011;7633;60.024;18.770;2023-09-12T11:57:14;5.47;;;4.97;;
15067;SDS011;7633;60.024;18.770;2023-09-12T12:00:04;4.60;;;4.20;;
15067;SDS011;7633;60.024;18.770;2023-09-12T12:02:33;6.05;;;4.90;;
15067;SDS011;7633;60.024;18.770;2023-09-12T12:04:59;5.22;;;4.63;;
15067;SDS011;7633;60.024;18.770;2023-09-12T12:07:26;4.00;;;3.70;;
15067;SDS011;7633;60.024;18.770;2023-09-12T12:09:52;5.40;;;4.32;;
15067;SDS011;7633;60.024;18.770;2023-09-12T12:12:21;5.28;;;4.88;;
15067;SDS011;7633;60.024;18.770;2023-09-12T12:17:44;5.45;;;4.68;;
15067;SDS011;7633;60.024;18.770;2023-09-12T12:20:10;5.20;;;4.70;;
15067;SDS011;7633;60.024;18.770;2023-09-12T12:33:06;5.40;;;5.00;;
15067;SDS011;7633;60.024;18.770;2023-09-12T13:14:23;6.53;;;5.93;;
15067;SDS011;7633;60.024;18.770;2023-09-12T13:16:55;6.70;;;5.32;;
15067;SDS011;7633;60.024;18.770;2023-09-12T13:19:21;6.50;;;6.00;;
15067;SDS011;7633;60.024;18.770;2023-09-12T13:21:47;7.60;;;5.78;;
15067;SDS011;7633;60.024;18.770;2023-09-12T13:24:14;6.28;;;5.70;;
15067;SDS011;7633;60.024;18.770;2023-09-12T13:26:40;6.38;;;5.88;;
15067;SDS011;7633;60.024;18.770;2023-09-12T13:29:09;7.53;;;5.53;;
15067;SDS011;7633;60.024;18.770;2023-09-12T13:31:37;6.70;;;6.10;;
15067;SDS011;7633;60.024;18.770;2023-09-12T13:34:04;9.13;;;6.32;;
15067;SDS011;7633;60.024;18.770;2023-09-12T13:36:29;6.15;;;5.65;;
15067;SDS011;7633;60.024;18.770;2023-09-12T13:39:03;7.63;;;6.75;;
15067;SDS011;7633;60.024;18.770;2023-09-12T13:41:53;7.00;;;6.50;;
15067;SDS011;7633;60.024;18.770;2023-09-12T13:44:25;7.70;;;7.07;;
15067;SDS011;7633;60.024;18.770;2023-09-12T13:46:53;7.63;;;7.05;;
15067;SDS011;7633;60.024;18.770;2023-09-12T13:57:03;8.27;;;7.57;;
15067;SDS011;7633;60.024;18.770;2023-09-12T13:59:29;6.85;;;5.85;;
15067;SDS011;7633;60.024;18.770;2023-09-12T14:01:57;7.82;;;7.13;;
15067;SDS011;7633;60.024;18.770;2023-09-12T14:04:22;6.72;;;6.05;;
15067;SDS011;7633;60.024;18.770;2023-09-12T14:06:51;7.03;;;6.00;;
15067;SDS011;7633;60.024;18.770;2023-09-12T14:09:19;8.50;;;7.70;;
15067;SDS011;7633;60.024;18.770;2023-09-12T14:11:49;7.55;;;6.85;;
15067;SDS011;7633;60.024;18.770;2023-09-12T14:14:16;7.80;;;7.10;;
15067;SDS011;7633;60.024;18.770;2023-09-12T14:27:33;8.93;;;8.02;;
15067;SDS011;7633;60.024;18.770;2023-09-12T14:30:02;7.97;;;7.20;;
15067;SDS011;7633;60.024;18.770;2023-09-12T15:00:55;10.05;;;9.07;;
15067;SDS011;7633;60.024;18.770;2023-09-12T15:03:20;9.07;;;8.18;;
15067;SDS011;7633;60.024;18.770;2023-09-12T15:05:45;9.45;;;8.65;;
15067;SDS011;7633;60.024;18.770;2023-09-12T15:08:14;9.35;;;8.60;;
15067;SDS011;7633;60.024;18.770;2023-09-12T15:49:43;10.75;;;9.85;;
15067;SDS011;7633;60.024;18.770;2023-09-12T16:49:03;11.88;;;10.77;;
15067;SDS011;7633;60.024;18.770;2023-09-12T16:51:29;12.65;;;11.32;;
15067;SDS011;7633;60.024;18.770;2023-09-12T16:53:54;11.95;;;10.82;;
15067;SDS011;7633;60.024;18.770;2023-09-12T16:56:28;11.63;;;10.52;;
15067;SDS011;7633;60.024;18.770;2023-09-12T16:59:08;12.07;;;11.10;;
15067;SDS011;7633;60.024;18.770;2023-09-12T17:01:38;11.70;;;10.60;;
15067;SDS011;7633;60.024;18.770;2023-09-12T17:04:05;12.98;;;11.68;;
15067;SDS011;7633;60.024;18.770;2023-09-12T17:06:31;11.77;;;10.77;;
15067;SDS011;7633;60.024;18.770;2023-09-12T17:08:57;12.18;;;11.18;;
15067;SDS011;7633;60.024;18.770;2023-09-12T17:11:24;12.40;;;10.93;;
15067;SDS011;7633;60.024;18.770;2023-09-12T17:13:50;12.05;;;11.07;;
15067;SDS011;7633;60.024;18.770;2023-09-12T17:16:15;12.88;;;11.68;;
15067;SDS011;7633;60.024;18.770;2023-09-12T17:18:42;13.05;;;11.85;;
15067;SDS011;7633;60.024;18.770;2023-09-12T17:21:07;13.45;;;12.23;;
15067;SDS011;7633;60.024;18.770;2023-09-12T17:23:33;12.35;;;11.25;;
15067;SDS011;7633;60.024;18.770;2023-09-12T17:25:59;12.68;;;11.57;;
15067;SDS011;7633;60.024;18.770;2023-09-12T17:28:24;12.88;;;11.75;;
15067;SDS011;7633;60.024;18.770;2023-09-12T17:30:50;13.18;;;11.88;;
15067;SDS011;7633;60.024;18.770;2023-09-12T18:16:49;13.20;;;12.00;;
15067;SDS011;7633;60.024;18.770;2023-09-12T18:19:14;13.27;;;12.07;;
15067;SDS011;7633;60.024;18.770;2023-09-12T18:21:40;12.27;;;11.18;;
15067;SDS011;7633;60.024;18.770;2023-09-12T18:24:05;12.80;;;11.65;;
15067;SDS011;7633;60.024;18.770;2023-09-12T18:26:31;13.13;;;11.98;;
15067;SDS011;7633;60.024;18.770;2023-09-12T18:29:00;13.25;;;11.98;;
15067;SDS011;7633;60.024;18.770;2023-09-12T18:31:26;13.30;;;12.02;;
15067;SDS011;7633;60.024;18.770;2023-09-12T18:33:51;13.23;;;11.90;;
15067;SDS011;7633;60.024;18.770;2023-09-12T18:36:17;12.65;;;11.02;;
15067;SDS011;7633;60.024;18.770;2023-09-12T18:38:43;13.00;;;11.88;;
15067;SDS011;7633;60.024;18.770;2023-09-12T18:41:09;13.63;;;12.30;;
15067;SDS011;7633;60.024;18.770;2023-09-12T18:43:34;12.48;;;11.48;;
15067;SDS011;7633;60.024;18.770;2023-09-12T18:46:00;12.38;;;11.27;;
15067;SDS011;7633;60.024;18.770;2023-09-12T18:48:31;12.70;;;11.18;;
15067;SDS011;7633;60.024;18.770;2023-09-12T18:50:57;12.70;;;11.50;;
15067;SDS011;7633;60.024;18.770;2023-09-12T18:53:27;13.45;;;12.20;;
15067;SDS011;7633;60.024;18.770;2023-09-12T18:55:52;12.35;;;11.05;;
15067;SDS011;7633;60.024;18.770;2023-09-12T18:58:18;12.55;;;11.43;;
15067;SDS011;7633;60.024;18.770;2023-09-12T19:00:47;12.20;;;11.20;;
15067;SDS011;7633;60.024;18.770;2023-09-12T19:03:15;12.43;;;11.07;;
15067;SDS011;7633;60.024;18.770;2023-09-12T19:05:42;12.10;;;11.00;;
15067;SDS011;7633;60.024;18.770;2023-09-12T19:08:23;12.38;;;11.27;;
15067;SDS011;7633;60.024;18.770;2023-09-12T19:10:49;11.18;;;10.15;;
15067;SDS011;7633;60.024;18.770;2023-09-12T19:13:18;11.68;;;10.50;;
15067;SDS011;7633;60.024;18.770;2023-09-12T19:15:44;11.18;;;10.00;;
15067;SDS011;7633;60.024;18.770;2023-09-12T19:18:10;11.73;;;10.50;;
15067;SDS011;7633;60.024;18.770;2023-09-12T19:20:37;10.75;;;9.77;;
15067;SDS011;7633;60.024;18.770;2023-09-12T19:23:03;12.25;;;11.13;;
15067;SDS011;7633;60.024;18.770;2023-09-12T19:25:30;10.93;;;9.93;;
15067;SDS011;7633;60.024;18.770;2023-09-12T19:27:56;11.23;;;10.23;;
15067;SDS011;7633;60.024;18.770;2023-09-12T19:30:21;10.55;;;9.52;;
15067;SDS011;7633;60.024;18.770;2023-09-12T19:32:47;11.57;;;10.00;;
15067;SDS011;7633;60.024;18.770;2023-09-12T19:35:12;11.15;;;10.25;;
15067;SDS011;7633;60.024;18.770;2023-09-12T19:37:39;10.63;;;9.73;;
15067;SDS011;7633;60.024;18.770;2023-09-12T19:40:12;11.48;;;10.38;;
15067;SDS011;7633;60.024;18.770;2023-09-12T19:42:40;11.60;;;10.40;;
15067;SDS011;7633;60.024;18.770;2023-09-12T19:45:06;11.00;;;9.68;;
15067;SDS011;7633;60.024;18.770;2023-09-12T19:47:31;10.65;;;9.65;;
15067;SDS011;7633;60.024;18.770;2023-09-12T19:49:57;10.95;;;9.85;;
15067;SDS011;7633;60.024;18.770;2023-09-12T19:52:24;10.98;;;9.98;;
15067;SDS011;7633;60.024;18.770;2023-09-12T19:54:49;10.45;;;9.45;;
15067;SDS011;7633;60.024;18.770;2023-09-12T19:57:15;10.68;;;9.68;;
15067;SDS011;7633;60.024;18.770;2023-09-12T19:59:40;10.95;;;9.85;;
15067;SDS011;7633;60.024;18.770;2023-09-12T20:02:06;11.00;;;9.90;;
15067;SDS011;7633;60.024;18.770;2023-09-12T20:04:32;10.23;;;9.32;;
15067;SDS011;7633;60.024;18.770;2023-09-12T20:06:57;10.50;;;9.55;;
15067;SDS011;7633;60.024;18.770;2023-09-12T20:09:23;10.35;;;9.45;;